IK5NLA Vaiano IT current weather conditions

sailwx.info

Wind from 323 at 2 knots gusting 2

Air temperature 16.7° C
Dewpoint 8.6° C

Last reported at 2014-Sep-01 22:55 UTC.
Time now 2014-Sep-01 23:33 UTC

Location: N 43°58' E 011°06'.
View on Google Maps.

See reports from other nearby stations

  
Tides and Currents Weather Stations Pressure Air Temp Water Temp Dewpoint Dewpoint Depression Visibility Wind Speed Wind Dir Waves Ship Positions
date/time (UTC)wind fromknots sea level pressurealtimeterstation pressurevisibilityair tempwater tempwave heightnotes
2014-Sep-01 22:55 323 2 gusting 2 16.7
2014-Sep-01 22:45 113 2 gusting 3 16.7
2014-Sep-01 22:35 116 0 gusting 1 16.7
2014-Sep-01 22:25 075 0 gusting 1 16.7
2014-Sep-01 22:15 093 1 gusting 2 16.7
2014-Sep-01 22:05 121 1 gusting 2 16.7
2014-Sep-01 21:55 126 2 gusting 3 16.7
2014-Sep-01 21:45 059 8 gusting 8 16.7
2014-Sep-01 21:35 063 5 gusting 5 16.7
2014-Sep-01 21:25 101 3 gusting 8 16.7
2014-Sep-01 21:15 082 2 gusting 2 16.7
2014-Sep-01 21:05 071 2 gusting 8 16.7
2014-Sep-01 20:55 069 9 gusting 9 16.7
2014-Sep-01 20:45 082 2 gusting 2 16.7
2014-Sep-01 20:35 085 8 gusting 8 16.7
2014-Sep-01 20:25 036 2 gusting 3 16.7
2014-Sep-01 20:15 043 3 gusting 4 16.7
2014-Sep-01 20:05 069 5 gusting 10 16.7
2014-Sep-01 19:55 097 5 gusting 5 16.7
2014-Sep-01 19:45 023 7 gusting 10 16.7
2014-Sep-01 19:35 064 4 gusting 12 16.7
2014-Sep-01 19:25 077 5 gusting 5 17.2
2014-Sep-01 19:15 074 9 gusting 9 17.2
2014-Sep-01 19:05 110 8 gusting 12 16.7
2014-Sep-01 18:55 101 8 gusting 8 16.7
2014-Sep-01 18:45 066 7 gusting 11 16.7
2014-Sep-01 18:35 105 2 gusting 3 16.7
2014-Sep-01 18:25 088 8 gusting 10 16.7
2014-Sep-01 18:15 074 11 gusting 13 16.7
2014-Sep-01 18:05 083 11 gusting 12 16.7
2014-Sep-01 17:55 047 6 gusting 7 16.7
2014-Sep-01 17:45 052 7 gusting 7 16.7
2014-Sep-01 17:35 111 8 gusting 14 16.7
2014-Sep-01 17:25 103 12 gusting 13 16.7
2014-Sep-01 17:15 054 7 gusting 12 16.7
2014-Sep-01 17:05 102 4 gusting 7 16.7
2014-Sep-01 16:55 087 8 gusting 13 16.7
2014-Sep-01 16:45 082 14 gusting 14 17.2
2014-Sep-01 16:35 089 4 gusting 8 16.7
2014-Sep-01 16:25 068 21 gusting 21 16.7
2014-Sep-01 16:15 058 14 gusting 14 16.7
2014-Sep-01 16:05 037 7 gusting 13 16.7
2014-Sep-01 15:55 088 6 gusting 11 16.7
2014-Sep-01 15:45 062 9 gusting 17 16.7
2014-Sep-01 15:35 088 9 gusting 10 16.7
2014-Sep-01 15:25 113 8 gusting 8 16.7
2014-Sep-01 15:15 111 7 gusting 7 16.1
2014-Sep-01 15:05 079 7 gusting 9 16.1
2014-Sep-01 14:55 091 6 gusting 6 15.6
2014-Sep-01 14:45 088 8 gusting 9 16.1
2014-Sep-01 14:35 038 9 gusting 11 16.1
2014-Sep-01 14:25 093 6 gusting 6 15.6
2014-Sep-01 14:15 074 2 gusting 9 16.1
2014-Sep-01 14:05 360 2 gusting 7 15.6
2014-Sep-01 13:55 127 19 gusting 21 16.1
2014-Sep-01 13:45 087 5 gusting 7 16.7
2014-Sep-01 13:35 015 15 gusting 20 16.1
2014-Sep-01 13:25 360 4 gusting 14 16.1
2014-Sep-01 13:15 087 10 gusting 13 16.1
2014-Sep-01 13:05 087 13 gusting 15 17.2
2014-Sep-01 12:55 069 7 gusting 14 17.8
2014-Sep-01 12:45 067 3 gusting 15 17.8
2014-Sep-01 12:25 087 10 gusting 19 17.8
2014-Sep-01 12:15 047 8 gusting 9 17.2
2014-Sep-01 12:05 083 13 gusting 15 17.2
2014-Sep-01 11:55 041 8 gusting 8 16.7
2014-Sep-01 11:45 077 5 gusting 11 16.7
2014-Sep-01 11:35 095 14 gusting 14 17.2
2014-Sep-01 11:25 086 8 gusting 8 17.2
2014-Sep-01 11:15 086 4 gusting 7 17.2
2014-Sep-01 11:05 089 4 gusting 6 16.7
2014-Sep-01 10:55 106 7 gusting 8 17.2
2014-Sep-01 10:45 089 2 gusting 6 17.8
2014-Sep-01 10:35 081 12 gusting 12 17.2
2014-Sep-01 10:25 040 14 gusting 14 17.2
2014-Sep-01 10:15 086 7 gusting 18 17.2
2014-Sep-01 10:05 084 14 gusting 18 17.2
2014-Sep-01 09:55 087 11 gusting 11 17.2
2014-Sep-01 09:45 107 6 gusting 10 17.2
2014-Sep-01 09:35 005 4 gusting 14 17.2
2014-Sep-01 09:25 080 13 gusting 13 17.2
2014-Sep-01 09:15 076 11 gusting 11 16.7
2014-Sep-01 09:05 088 11 gusting 13 16.7
2014-Sep-01 08:55 088 12 gusting 16 16.7
2014-Sep-01 08:45 074 10 gusting 12 16.7
2014-Sep-01 08:35 088 6 gusting 8 16.7
2014-Sep-01 08:25 056 8 gusting 12 16.7
2014-Sep-01 08:15 042 3 gusting 7 16.1
2014-Sep-01 08:05 074 10 gusting 10 16.1
2014-Sep-01 07:55 070 10 gusting 10 16.1
2014-Sep-01 07:45 096 7 gusting 7 16.1
2014-Sep-01 07:35 055 6 gusting 8 15.6
2014-Sep-01 07:25 065 12 gusting 13 15.0
2014-Sep-01 07:15 076 5 gusting 6 15.0
2014-Sep-01 07:05 085 11 gusting 11 15.0
2014-Sep-01 06:55 034 7 gusting 12 15.0
2014-Sep-01 06:45 005 2 gusting 4 14.4
2014-Sep-01 06:35 084 14 gusting 15 14.4
2014-Sep-01 06:25 084 7 gusting 8 13.9
2014-Sep-01 06:15 052 6 gusting 9 13.3
2014-Sep-01 06:05 076 8 gusting 8 13.3
2014-Sep-01 05:55 140 1 gusting 9 13.3
2014-Sep-01 05:45 065 3 gusting 3 13.3
2014-Sep-01 05:35 063 2 gusting 6 13.9
2014-Sep-01 05:25 098 11 gusting 11 13.9
2014-Sep-01 05:15 094 2 gusting 6 13.9
2014-Sep-01 05:05 111 3 gusting 3 13.9
2014-Sep-01 04:55 081 5 gusting 5 13.9
2014-Sep-01 04:45 088 2 gusting 2 13.9
2014-Sep-01 04:35 068 3 gusting 7 13.9
2014-Sep-01 04:25 088 3 gusting 7 13.9
2014-Sep-01 04:15 090 7 gusting 7 13.9
2014-Sep-01 04:05 091 6 gusting 6 13.9
2014-Sep-01 03:55 101 4 gusting 4 13.9
2014-Sep-01 03:45 075 9 gusting 9 13.9
2014-Sep-01 03:35 107 2 gusting 2 13.9
2014-Sep-01 03:25 040 2 gusting 4 13.3
2014-Sep-01 03:15 078 9 gusting 9 13.3
2014-Sep-01 03:05 072 3 gusting 4 13.3
2014-Sep-01 02:55 114 0 gusting 0 13.9
2014-Sep-01 02:45 019 6 gusting 6 13.9
2014-Sep-01 02:35 078 6 gusting 6 13.9
2014-Sep-01 02:25 130 13.9
2014-Sep-01 02:15 025 4 gusting 6 13.9
2014-Sep-01 02:05 087 7 gusting 7 13.9
2014-Sep-01 01:55 061 3 gusting 4 13.9
2014-Sep-01 01:45 064 6 gusting 8 14.4
2014-Sep-01 01:35 067 4 gusting 4 14.4
2014-Sep-01 01:25 074 4 gusting 4 15.0
2014-Sep-01 01:15 165 1 gusting 3 15.0
2014-Sep-01 01:05 295 2 gusting 3 15.0
2014-Sep-01 00:55 026 64 gusting 65 15.6
2014-Sep-01 00:45 033 65 gusting 66 17.2
2014-Sep-01 00:35 017 4 gusting 6 17.8
2014-Sep-01 00:25 134 0 gusting 0 17.8
2014-Sep-01 00:15 355 1 gusting 1 17.8
2014-Sep-01 00:05 271 0 gusting 2 17.8
2014-Aug-31 23:55 360 3 gusting 5 17.8
2014-Aug-31 23:45 160 2 gusting 8 17.8
2014-Aug-31 23:35 215 8 gusting 8 17.8
2014-Aug-31 23:25 244 8 gusting 11 17.8
2014-Aug-31 23:15 205 7 gusting 8 17.8
2014-Aug-31 23:05 217 3 gusting 6 17.8
2014-Aug-31 22:55 265 4 gusting 8 17.8
2014-Aug-31 22:45 189 5 gusting 5 17.8
2014-Aug-31 22:35 198 11 gusting 11 17.8
2014-Aug-31 22:25 179 8 gusting 13 17.8
2014-Aug-31 22:15 240 8 gusting 8 17.8
2014-Aug-31 22:05 200 3 gusting 7 18.3
2014-Aug-31 21:55 257 12 gusting 13 18.3
2014-Aug-31 21:45 234 13 gusting 14 18.3
2014-Aug-31 21:35 213 8 gusting 11 18.3
2014-Aug-31 21:25 200 5 gusting 11 18.3
2014-Aug-31 21:15 218 8 gusting 8 18.3
2014-Aug-31 21:05 344 5 gusting 13 18.3
2014-Aug-31 20:55 261 5 gusting 5 18.3
2014-Aug-31 20:45 230 2 gusting 5 18.3
2014-Aug-31 20:35 245 2 gusting 7 18.9
2014-Aug-31 20:25 208 3 gusting 3 18.3
2014-Aug-31 20:15 209 7 gusting 7 18.9
2014-Aug-31 20:05 303 6 gusting 8 18.3
2014-Aug-31 19:55 256 3 gusting 6 18.9
2014-Aug-31 19:45 237 6 gusting 6 18.9
2014-Aug-31 19:35 214 6 gusting 7 19.4
2014-Aug-31 19:25 210 2 gusting 3 19.4
2014-Aug-31 19:05 241 9 gusting 11 19.4
2014-Aug-31 18:55 232 3 gusting 3 20.0
2014-Aug-31 18:45 242 3 gusting 3 20.0
2014-Aug-31 18:35 194 2 gusting 4 20.0
2014-Aug-31 18:25 211 2 gusting 2 20.6
2014-Aug-31 18:15 207 1 gusting 7 20.6
2014-Aug-31 18:05 188 2 gusting 2 21.1
2014-Aug-31 17:55 169 2 gusting 2 21.1
2014-Aug-31 17:45 218 21.7
2014-Aug-31 17:35 172 2 gusting 3 21.7
2014-Aug-31 17:25 230 5 gusting 5 21.7
2014-Aug-31 17:15 211 6 gusting 6 22.2
2014-Aug-31 17:05 173 5 gusting 5 22.2
2014-Aug-31 16:55 253 5 gusting 10 22.2
2014-Aug-31 16:45 253 0 gusting 3 22.8
2014-Aug-31 16:35 232 8 gusting 11 22.8
2014-Aug-31 16:25 173 3 gusting 9 22.8
2014-Aug-31 16:15 257 6 gusting 8 23.3
2014-Aug-31 16:05 197 5 gusting 6 23.3
2014-Aug-31 15:55 209 8 gusting 9 23.9
2014-Aug-31 15:45 202 7 gusting 7 23.9
2014-Aug-31 15:35 233 6 gusting 8 23.9
2014-Aug-31 15:25 317 0 gusting 3 23.9
2014-Aug-31 15:15 288 5 gusting 5 23.9
2014-Aug-31 15:05 257 2 gusting 3 23.9
2014-Aug-31 14:55 255 5 gusting 5 24.4
2014-Aug-31 14:45 254 2 gusting 5 24.4
2014-Aug-31 14:35 206 8 gusting 9 24.4
2014-Aug-31 14:25 265 2 gusting 2 24.4
2014-Aug-31 14:15 274 8 gusting 8 24.4
2014-Aug-31 14:05 195 5 gusting 5 23.9
2014-Aug-31 13:55 224 10 gusting 10 24.4
2014-Aug-31 13:45 240 4 gusting 5 24.4
2014-Aug-31 13:35 254 6 gusting 8 23.9
2014-Aug-31 13:25 214 6 gusting 6 23.9
2014-Aug-31 13:15 240 8 gusting 10 24.4
2014-Aug-31 13:05 242 7 gusting 13 24.4
2014-Aug-31 12:55 233 10 gusting 10 23.9
2014-Aug-31 12:45 280 8 gusting 9 23.9
2014-Aug-31 12:35 215 5 gusting 11 24.4
2014-Aug-31 12:25 204 6 gusting 9 23.9
2014-Aug-31 12:15 249 4 gusting 11 23.3
2014-Aug-31 12:05 235 8 gusting 8 23.9
2014-Aug-31 11:55 257 8 gusting 10 23.9
2014-Aug-31 11:45 205 7 gusting 10 23.9
2014-Aug-31 11:35 182 5 gusting 5 23.9
2014-Aug-31 11:25 164 3 gusting 3 23.9
2014-Aug-31 11:15 204 3 gusting 5 23.9
2014-Aug-31 11:05 227 4 gusting 7 23.3
2014-Aug-31 10:55 227 5 gusting 6 23.3
2014-Aug-31 10:45 229 6 gusting 9 23.3
2014-Aug-31 10:35 209 2 gusting 2 22.8
2014-Aug-31 10:25 209 7 gusting 9 22.8
2014-Aug-31 10:15 225 2 gusting 4 22.8
2014-Aug-31 10:05 244 2 gusting 4 22.8
2014-Aug-31 09:55 161 0 gusting 2 23.3
2014-Aug-31 09:45 206 8 gusting 8 22.8
2014-Aug-31 09:35 202 5 gusting 7 22.8
2014-Aug-31 09:25 211 3 gusting 3 22.2
2014-Aug-31 09:15 208 2 gusting 4 22.8
2014-Aug-31 09:05 196 3 gusting 7 22.8
2014-Aug-31 08:55 240 2 gusting 2 22.8
2014-Aug-31 08:45 213 1 gusting 2 22.8
2014-Aug-31 08:35 142 1 gusting 2 22.2
2014-Aug-31 08:25 175 22.2
2014-Aug-31 08:15 207 2 gusting 2 22.8
2014-Aug-31 08:05 186 2 gusting 2 22.2
2014-Aug-31 07:55 126 0 gusting 0 21.7
2014-Aug-31 07:45 144 0 gusting 0 21.7
2014-Aug-31 07:35 132 0 gusting 0 21.7
2014-Aug-31 07:25 121 0 gusting 1 21.7
2014-Aug-31 07:15 109 2 gusting 2 21.1
2014-Aug-31 07:05 101 1 gusting 2 20.6
2014-Aug-31 06:55 080 0 gusting 1 20.6
2014-Aug-31 06:45 105 2 gusting 2 20.6
2014-Aug-31 06:35 126 2 gusting 2 20.0
2014-Aug-31 06:25 090 0 gusting 1 20.0
2014-Aug-31 06:15 089 19.4
2014-Aug-31 06:05 088 0 gusting 0 18.9
2014-Aug-31 05:55 088 2 gusting 2 18.9
2014-Aug-31 05:45 342 18.9
2014-Aug-31 05:35 342 18.9
2014-Aug-31 05:25 342 18.3
2014-Aug-31 05:15 341 1 gusting 1 18.3
2014-Aug-31 05:05 341 17.8
2014-Aug-31 04:55 341 2 gusting 3 17.2
2014-Aug-31 04:45 348 2 gusting 2 17.2
2014-Aug-31 04:35 348 1 gusting 2 17.2
2014-Aug-31 04:25 348 0 gusting 1 17.2
2014-Aug-31 04:15 348 0 gusting 0 17.2
2014-Aug-31 04:05 348 1 gusting 1 17.8
2014-Aug-31 03:55 348 1 gusting 1 17.8
2014-Aug-31 03:45 348 1 gusting 2 18.3
2014-Aug-31 03:35 348 2 gusting 2 18.3
2014-Aug-31 03:25 348 2 gusting 2 18.3
2014-Aug-31 03:15 025 2 gusting 2 18.9
2014-Aug-31 03:05 032 2 gusting 3 18.9
2014-Aug-31 02:55 360 1 gusting 2 18.9
2014-Aug-31 02:45 057 1 gusting 2 18.9
2014-Aug-31 02:35 029 2 gusting 2 18.9
2014-Aug-31 02:25 013 2 gusting 2 18.3
2014-Aug-31 02:15 355 2 gusting 3 18.3
2014-Aug-31 02:05 342 2 gusting 2 18.9
2014-Aug-31 01:55 355 2 gusting 2 18.3
2014-Aug-31 01:45 349 2 gusting 2 18.3
2014-Aug-31 01:35 355 2 gusting 3 18.3
2014-Aug-31 01:25 338 2 gusting 3 18.3
2014-Aug-31 01:15 342 3 gusting 3 18.9
2014-Aug-31 01:05 338 2 gusting 2 18.9
2014-Aug-31 00:55 347 2 gusting 2 18.9
2014-Aug-31 00:45 355 2 gusting 2 18.9
2014-Aug-31 00:35 338 2 gusting 4 18.9
2014-Aug-31 00:25 336 2 gusting 3 18.9
2014-Aug-31 00:15 342 3 gusting 3 18.9
2014-Aug-31 00:05 345 3 gusting 3 19.4
2014-Aug-30 23:55 344 3 gusting 3 19.4
2014-Aug-30 23:45 011 2 gusting 2 19.4
2014-Aug-30 23:35 348 2 gusting 2 19.4
2014-Aug-30 23:25 023 2 gusting 2 18.9
2014-Aug-30 23:15 037 2 gusting 2 18.9
2014-Aug-30 23:05 017 1 gusting 2 18.9